sensor_id;sensor_type;location;lat;lon;timestamp;temperature;humidity
59469;DHT22;45277;52.768;18.262;2023-07-31T00:01:30;17.70;99.90
59469;DHT22;45277;52.768;18.262;2023-07-31T00:03:01;17.70;99.90
59469;DHT22;45277;52.768;18.262;2023-07-31T00:04:33;17.70;99.90
59469;DHT22;45277;52.768;18.262;2023-07-31T00:06:04;17.70;99.90
59469;DHT22;45277;52.768;18.262;2023-07-31T00:07:36;17.70;99.90
59469;DHT22;45277;52.768;18.262;2023-07-31T00:09:07;17.70;99.90
59469;DHT22;45277;52.768;18.262;2023-07-31T00:10:39;17.70;99.90
59469;DHT22;45277;52.768;18.262;2023-07-31T00:12:10;17.70;99.90
59469;DHT22;45277;52.768;18.262;2023-07-31T00:13:42;17.60;99.90
59469;DHT22;45277;52.768;18.262;2023-07-31T00:15:14;17.60;99.90
59469;DHT22;45277;52.768;18.262;2023-07-31T00:16:45;17.60;99.90
59469;DHT22;45277;52.768;18.262;2023-07-31T00:18:17;17.60;99.90
59469;DHT22;45277;52.768;18.262;2023-07-31T00:19:49;17.50;99.90
59469;DHT22;45277;52.768;18.262;2023-07-31T00:21:21;17.60;99.90
59469;DHT22;45277;52.768;18.262;2023-07-31T00:22:53;17.60;99.90
59469;DHT22;45277;52.768;18.262;2023-07-31T00:24:24;17.60;99.90
59469;DHT22;45277;52.768;18.262;2023-07-31T00:25:56;17.60;99.90
59469;DHT22;45277;52.768;18.262;2023-07-31T00:27:27;17.60;99.90
59469;DHT22;45277;52.768;18.262;2023-07-31T00:28:59;17.60;99.90
59469;DHT22;45277;52.768;18.262;2023-07-31T00:30:30;17.60;99.90
59469;DHT22;45277;52.768;18.262;2023-07-31T00:32:02;17.70;99.90
59469;DHT22;45277;52.768;18.262;2023-07-31T00:33:34;17.70;99.90
59469;DHT22;45277;52.768;18.262;2023-07-31T00:35:06;17.70;99.90
59469;DHT22;45277;52.768;18.262;2023-07-31T00:36:37;17.60;99.90
59469;DHT22;45277;52.768;18.262;2023-07-31T00:38:09;17.70;99.90
59469;DHT22;45277;52.768;18.262;2023-07-31T00:39:40;17.70;99.90
59469;DHT22;45277;52.768;18.262;2023-07-31T00:41:12;17.70;99.90
59469;DHT22;45277;52.768;18.262;2023-07-31T00:42:43;17.70;99.90
59469;DHT22;45277;52.768;18.262;2023-07-31T00:44:14;17.70;99.90
59469;DHT22;45277;52.768;18.262;2023-07-31T00:45:46;17.70;99.90
59469;DHT22;45277;52.768;18.262;2023-07-31T00:47:17;17.70;99.90
59469;DHT22;45277;52.768;18.262;2023-07-31T00:48:49;17.70;99.90
59469;DHT22;45277;52.768;18.262;2023-07-31T00:50:24;17.70;99.90
59469;DHT22;45277;52.768;18.262;2023-07-31T00:51:56;17.60;99.90
59469;DHT22;45277;52.768;18.262;2023-07-31T00:53:28;17.60;99.90
59469;DHT22;45277;52.768;18.262;2023-07-31T00:55:00;17.60;99.90
59469;DHT22;45277;52.768;18.262;2023-07-31T00:56:32;17.60;99.90
59469;DHT22;45277;52.768;18.262;2023-07-31T00:58:04;17.60;99.90
59469;DHT22;45277;52.768;18.262;2023-07-31T00:59:35;17.50;99.90
59469;DHT22;45277;52.768;18.262;2023-07-31T01:01:06;17.40;99.90
59469;DHT22;45277;52.768;18.262;2023-07-31T01:02:38;17.30;99.90
59469;DHT22;45277;52.768;18.262;2023-07-31T01:04:09;17.10;99.90
59469;DHT22;45277;52.768;18.262;2023-07-31T01:07:56;16.80;99.90
59469;DHT22;45277;52.768;18.262;2023-07-31T01:11:22;16.50;99.90
59469;DHT22;45277;52.768;18.262;2023-07-31T01:12:57;16.40;99.90
59469;DHT22;45277;52.768;18.262;2023-07-31T01:14:28;16.30;99.90
59469;DHT22;45277;52.768;18.262;2023-07-31T01:16:00;16.20;99.90
59469;DHT22;45277;52.768;18.262;2023-07-31T01:17:32;16.20;99.90
59469;DHT22;45277;52.768;18.262;2023-07-31T01:19:03;16.10;99.90
59469;DHT22;45277;52.768;18.262;2023-07-31T01:20:36;16.10;99.90
59469;DHT22;45277;52.768;18.262;2023-07-31T01:23:32;16.10;99.90
59469;DHT22;45277;52.768;18.262;2023-07-31T01:24:36;16.10;99.90
59469;DHT22;45277;52.768;18.262;2023-07-31T01:26:13;16.10;99.90
59469;DHT22;45277;52.768;18.262;2023-07-31T01:27:57;16.10;99.90
59469;DHT22;45277;52.768;18.262;2023-07-31T01:29:49;16.10;99.90
59469;DHT22;45277;52.768;18.262;2023-07-31T01:31:24;16.00;99.90
59469;DHT22;45277;52.768;18.262;2023-07-31T01:32:56;16.00;99.90
59469;DHT22;45277;52.768;18.262;2023-07-31T01:34:29;16.00;99.90
59469;DHT22;45277;52.768;18.262;2023-07-31T01:36:01;16.00;99.90
59469;DHT22;45277;52.768;18.262;2023-07-31T01:37:33;16.00;99.90
59469;DHT22;45277;52.768;18.262;2023-07-31T01:39:04;16.00;99.90
59469;DHT22;45277;52.768;18.262;2023-07-31T01:40:36;16.00;99.90
59469;DHT22;45277;52.768;18.262;2023-07-31T01:42:07;16.00;99.90
59469;DHT22;45277;52.768;18.262;2023-07-31T01:43:38;16.00;99.90
59469;DHT22;45277;52.768;18.262;2023-07-31T01:45:10;16.00;99.90
59469;DHT22;45277;52.768;18.262;2023-07-31T01:46:42;16.00;99.90
59469;DHT22;45277;52.768;18.262;2023-07-31T01:48:13;16.00;99.90
59469;DHT22;45277;52.768;18.262;2023-07-31T01:49:44;16.00;99.90
59469;DHT22;45277;52.768;18.262;2023-07-31T01:51:16;16.00;99.90
59469;DHT22;45277;52.768;18.262;2023-07-31T01:52:47;16.00;99.90
59469;DHT22;45277;52.768;18.262;2023-07-31T01:54:18;16.00;99.90
59469;DHT22;45277;52.768;18.262;2023-07-31T01:55:50;16.00;99.90
59469;DHT22;45277;52.768;18.262;2023-07-31T01:57:21;16.00;99.90
59469;DHT22;45277;52.768;18.262;2023-07-31T01:58:52;16.10;99.90
59469;DHT22;45277;52.768;18.262;2023-07-31T02:00:24;16.10;99.90
59469;DHT22;45277;52.768;18.262;2023-07-31T02:01:55;16.10;99.90
59469;DHT22;45277;52.768;18.262;2023-07-31T02:03:26;16.10;99.90
59469;DHT22;45277;52.768;18.262;2023-07-31T02:04:58;16.10;99.90
59469;DHT22;45277;52.768;18.262;2023-07-31T02:06:29;16.00;99.90
59469;DHT22;45277;52.768;18.262;2023-07-31T02:08:00;16.10;99.90
59469;DHT22;45277;52.768;18.262;2023-07-31T02:09:32;16.00;99.90
59469;DHT22;45277;52.768;18.262;2023-07-31T02:11:03;16.10;99.90
59469;DHT22;45277;52.768;18.262;2023-07-31T02:12:35;16.10;99.90
59469;DHT22;45277;52.768;18.262;2023-07-31T02:14:06;16.00;99.90
59469;DHT22;45277;52.768;18.262;2023-07-31T02:15:38;16.00;99.90
59469;DHT22;45277;52.768;18.262;2023-07-31T02:17:09;16.00;99.90
59469;DHT22;45277;52.768;18.262;2023-07-31T02:18:40;16.00;99.90
59469;DHT22;45277;52.768;18.262;2023-07-31T02:20:12;16.00;99.90
59469;DHT22;45277;52.768;18.262;2023-07-31T02:21:43;16.00;99.90
59469;DHT22;45277;52.768;18.262;2023-07-31T02:23:14;15.90;99.90
59469;DHT22;45277;52.768;18.262;2023-07-31T02:24:46;15.90;99.90
59469;DHT22;45277;52.768;18.262;2023-07-31T02:26:17;15.90;99.90
59469;DHT22;45277;52.768;18.262;2023-07-31T02:27:48;15.80;99.90
59469;DHT22;45277;52.768;18.262;2023-07-31T02:29:19;15.80;99.90
59469;DHT22;45277;52.768;18.262;2023-07-31T02:30:51;15.80;99.90
59469;DHT22;45277;52.768;18.262;2023-07-31T02:32:23;15.70;99.90
59469;DHT22;45277;52.768;18.262;2023-07-31T02:33:54;15.70;99.90
59469;DHT22;45277;52.768;18.262;2023-07-31T02:35:25;15.70;99.90
59469;DHT22;45277;52.768;18.262;2023-07-31T02:36:57;15.70;99.90
59469;DHT22;45277;52.768;18.262;2023-07-31T02:38:28;15.70;99.90
59469;DHT22;45277;52.768;18.262;2023-07-31T02:39:59;15.70;99.90
59469;DHT22;45277;52.768;18.262;2023-07-31T02:41:30;15.60;99.90
59469;DHT22;45277;52.768;18.262;2023-07-31T02:43:02;15.60;99.90
59469;DHT22;45277;52.768;18.262;2023-07-31T02:44:33;15.50;99.90
59469;DHT22;45277;52.768;18.262;2023-07-31T02:46:04;15.40;99.90
59469;DHT22;45277;52.768;18.262;2023-07-31T02:47:36;15.40;99.90
59469;DHT22;45277;52.768;18.262;2023-07-31T02:49:07;15.40;99.90
59469;DHT22;45277;52.768;18.262;2023-07-31T02:50:38;15.30;99.90
59469;DHT22;45277;52.768;18.262;2023-07-31T02:52:10;15.30;99.90
59469;DHT22;45277;52.768;18.262;2023-07-31T02:53:41;15.20;99.90
59469;DHT22;45277;52.768;18.262;2023-07-31T02:55:12;15.20;99.90
59469;DHT22;45277;52.768;18.262;2023-07-31T02:56:44;15.20;99.90
59469;DHT22;45277;52.768;18.262;2023-07-31T02:58:15;15.20;99.90
59469;DHT22;45277;52.768;18.262;2023-07-31T02:59:46;15.20;99.90
59469;DHT22;45277;52.768;18.262;2023-07-31T03:01:18;15.10;99.90
59469;DHT22;45277;52.768;18.262;2023-07-31T03:02:49;15.10;99.90
59469;DHT22;45277;52.768;18.262;2023-07-31T03:04:20;15.10;99.90
59469;DHT22;45277;52.768;18.262;2023-07-31T03:05:52;15.10;99.90
59469;DHT22;45277;52.768;18.262;2023-07-31T03:07:24;15.10;99.90
59469;DHT22;45277;52.768;18.262;2023-07-31T03:08:55;15.10;99.90
59469;DHT22;45277;52.768;18.262;2023-07-31T03:10:27;15.10;99.90
59469;DHT22;45277;52.768;18.262;2023-07-31T03:11:58;15.10;99.90
59469;DHT22;45277;52.768;18.262;2023-07-31T03:13:29;15.10;99.90
59469;DHT22;45277;52.768;18.262;2023-07-31T03:15:01;15.10;99.90
59469;DHT22;45277;52.768;18.262;2023-07-31T03:16:32;15.10;99.90
59469;DHT22;45277;52.768;18.262;2023-07-31T03:18:04;15.00;99.90
59469;DHT22;45277;52.768;18.262;2023-07-31T03:19:35;15.00;99.90
59469;DHT22;45277;52.768;18.262;2023-07-31T03:21:06;15.00;99.90
59469;DHT22;45277;52.768;18.262;2023-07-31T03:22:38;15.10;99.90
59469;DHT22;45277;52.768;18.262;2023-07-31T03:24:09;15.10;99.90
59469;DHT22;45277;52.768;18.262;2023-07-31T03:25:58;15.10;99.90
59469;DHT22;45277;52.768;18.262;2023-07-31T03:27:29;15.10;99.90
59469;DHT22;45277;52.768;18.262;2023-07-31T03:29:01;15.10;99.90
59469;DHT22;45277;52.768;18.262;2023-07-31T03:30:36;15.10;99.90
59469;DHT22;45277;52.768;18.262;2023-07-31T03:32:09;15.10;99.90
59469;DHT22;45277;52.768;18.262;2023-07-31T03:33:40;15.10;99.90
59469;DHT22;45277;52.768;18.262;2023-07-31T03:35:11;15.10;99.90
59469;DHT22;45277;52.768;18.262;2023-07-31T03:36:43;15.20;99.90
59469;DHT22;45277;52.768;18.262;2023-07-31T03:38:15;15.20;99.90
59469;DHT22;45277;52.768;18.262;2023-07-31T03:39:46;15.20;99.90
59469;DHT22;45277;52.768;18.262;2023-07-31T03:41:18;15.20;99.90
59469;DHT22;45277;52.768;18.262;2023-07-31T03:42:49;15.20;99.90
59469;DHT22;45277;52.768;18.262;2023-07-31T03:44:20;15.30;99.90
59469;DHT22;45277;52.768;18.262;2023-07-31T03:45:52;15.30;99.90
59469;DHT22;45277;52.768;18.262;2023-07-31T03:47:23;15.30;99.90
59469;DHT22;45277;52.768;18.262;2023-07-31T03:48:54;15.40;99.90
59469;DHT22;45277;52.768;18.262;2023-07-31T03:50:26;15.40;99.90
59469;DHT22;45277;52.768;18.262;2023-07-31T03:51:57;15.40;99.90
59469;DHT22;45277;52.768;18.262;2023-07-31T03:53:29;15.40;99.90
59469;DHT22;45277;52.768;18.262;2023-07-31T03:55:00;15.40;99.90
59469;DHT22;45277;52.768;18.262;2023-07-31T03:56:31;15.40;99.90
59469;DHT22;45277;52.768;18.262;2023-07-31T03:58:03;15.40;99.90
59469;DHT22;45277;52.768;18.262;2023-07-31T03:59:34;15.40;99.90
59469;DHT22;45277;52.768;18.262;2023-07-31T04:01:06;15.40;99.90
59469;DHT22;45277;52.768;18.262;2023-07-31T04:02:37;15.40;99.90
59469;DHT22;45277;52.768;18.262;2023-07-31T04:04:09;15.40;99.90
59469;DHT22;45277;52.768;18.262;2023-07-31T04:05:40;15.40;99.90
59469;DHT22;45277;52.768;18.262;2023-07-31T04:07:11;15.40;99.90
59469;DHT22;45277;52.768;18.262;2023-07-31T04:08:43;15.40;99.90
59469;DHT22;45277;52.768;18.262;2023-07-31T04:10:14;15.40;99.90
59469;DHT22;45277;52.768;18.262;2023-07-31T04:11:46;15.40;99.90
59469;DHT22;45277;52.768;18.262;2023-07-31T04:13:17;15.40;99.90
59469;DHT22;45277;52.768;18.262;2023-07-31T04:14:48;15.40;99.90
59469;DHT22;45277;52.768;18.262;2023-07-31T04:16:20;15.40;99.90
59469;DHT22;45277;52.768;18.262;2023-07-31T04:17:51;15.40;99.90
59469;DHT22;45277;52.768;18.262;2023-07-31T04:19:22;15.50;99.90
59469;DHT22;45277;52.768;18.262;2023-07-31T04:20:54;15.40;99.90
59469;DHT22;45277;52.768;18.262;2023-07-31T04:22:25;15.40;99.90
59469;DHT22;45277;52.768;18.262;2023-07-31T04:23:57;15.50;99.90
59469;DHT22;45277;52.768;18.262;2023-07-31T04:25:29;15.50;99.90
59469;DHT22;45277;52.768;18.262;2023-07-31T04:27:00;15.50;99.90
59469;DHT22;45277;52.768;18.262;2023-07-31T04:28:32;15.60;99.90
59469;DHT22;45277;52.768;18.262;2023-07-31T04:30:04;15.60;99.90
59469;DHT22;45277;52.768;18.262;2023-07-31T04:31:35;15.60;99.90
59469;DHT22;45277;52.768;18.262;2023-07-31T04:33:07;15.70;99.90
59469;DHT22;45277;52.768;18.262;2023-07-31T04:34:38;15.70;99.90
59469;DHT22;45277;52.768;18.262;2023-07-31T04:36:09;15.70;99.90
59469;DHT22;45277;52.768;18.262;2023-07-31T04:37:41;15.70;99.90
59469;DHT22;45277;52.768;18.262;2023-07-31T04:39:12;15.80;99.90
59469;DHT22;45277;52.768;18.262;2023-07-31T04:40:44;15.70;99.90
59469;DHT22;45277;52.768;18.262;2023-07-31T04:42:15;15.80;99.90
59469;DHT22;45277;52.768;18.262;2023-07-31T04:43:46;15.80;99.90
59469;DHT22;45277;52.768;18.262;2023-07-31T04:45:18;15.80;99.90
59469;DHT22;45277;52.768;18.262;2023-07-31T04:46:49;15.90;99.90
59469;DHT22;45277;52.768;18.262;2023-07-31T04:48:21;15.90;99.90
59469;DHT22;45277;52.768;18.262;2023-07-31T04:49:52;15.90;99.90
59469;DHT22;45277;52.768;18.262;2023-07-31T04:51:24;15.90;99.90
59469;DHT22;45277;52.768;18.262;2023-07-31T04:52:56;16.00;99.90
59469;DHT22;45277;52.768;18.262;2023-07-31T04:54:29;16.00;99.90
59469;DHT22;45277;52.768;18.262;2023-07-31T04:56:00;16.00;99.90
59469;DHT22;45277;52.768;18.262;2023-07-31T04:57:32;16.00;99.90
59469;DHT22;45277;52.768;18.262;2023-07-31T04:59:03;16.00;99.90
59469;DHT22;45277;52.768;18.262;2023-07-31T05:00:34;16.00;99.90
59469;DHT22;45277;52.768;18.262;2023-07-31T05:02:08;16.10;99.90
59469;DHT22;45277;52.768;18.262;2023-07-31T05:03:39;16.10;99.90
59469;DHT22;45277;52.768;18.262;2023-07-31T05:05:10;16.20;99.90
59469;DHT22;45277;52.768;18.262;2023-07-31T05:06:42;16.20;99.90
59469;DHT22;45277;52.768;18.262;2023-07-31T05:08:13;16.10;99.90
59469;DHT22;45277;52.768;18.262;2023-07-31T05:09:44;16.20;99.90
59469;DHT22;45277;52.768;18.262;2023-07-31T05:11:16;16.20;99.90
59469;DHT22;45277;52.768;18.262;2023-07-31T05:12:47;16.30;99.90
59469;DHT22;45277;52.768;18.262;2023-07-31T05:14:18;16.30;99.90
59469;DHT22;45277;52.768;18.262;2023-07-31T05:15:51;16.30;99.90
59469;DHT22;45277;52.768;18.262;2023-07-31T05:17:22;16.30;99.90
59469;DHT22;45277;52.768;18.262;2023-07-31T05:18:53;16.40;99.90
59469;DHT22;45277;52.768;18.262;2023-07-31T05:20:25;16.50;99.90
59469;DHT22;45277;52.768;18.262;2023-07-31T05:21:56;16.60;99.90
59469;DHT22;45277;52.768;18.262;2023-07-31T05:23:28;16.70;99.90
59469;DHT22;45277;52.768;18.262;2023-07-31T05:24:59;16.80;99.90
59469;DHT22;45277;52.768;18.262;2023-07-31T05:26:31;16.80;99.90
59469;DHT22;45277;52.768;18.262;2023-07-31T05:28:02;16.80;99.90
59469;DHT22;45277;52.768;18.262;2023-07-31T05:29:33;16.90;99.90
59469;DHT22;45277;52.768;18.262;2023-07-31T05:31:05;16.90;99.90
59469;DHT22;45277;52.768;18.262;2023-07-31T05:32:36;16.90;99.90
59469;DHT22;45277;52.768;18.262;2023-07-31T05:34:08;17.00;99.90
59469;DHT22;45277;52.768;18.262;2023-07-31T05:35:39;17.00;99.90
59469;DHT22;45277;52.768;18.262;2023-07-31T05:37:11;17.10;99.90
59469;DHT22;45277;52.768;18.262;2023-07-31T05:38:43;17.10;99.90
59469;DHT22;45277;52.768;18.262;2023-07-31T05:40:17;17.10;99.90
59469;DHT22;45277;52.768;18.262;2023-07-31T05:41:48;17.10;99.90
59469;DHT22;45277;52.768;18.262;2023-07-31T05:43:20;17.10;99.90
59469;DHT22;45277;52.768;18.262;2023-07-31T05:44:51;17.20;99.90
59469;DHT22;45277;52.768;18.262;2023-07-31T05:46:23;17.20;99.90
59469;DHT22;45277;52.768;18.262;2023-07-31T05:47:54;17.20;99.90
59469;DHT22;45277;52.768;18.262;2023-07-31T05:49:26;17.30;99.90
59469;DHT22;45277;52.768;18.262;2023-07-31T05:50:57;17.40;99.90
59469;DHT22;45277;52.768;18.262;2023-07-31T05:52:29;17.50;99.90
59469;DHT22;45277;52.768;18.262;2023-07-31T05:54:00;17.60;99.90
59469;DHT22;45277;52.768;18.262;2023-07-31T05:55:31;17.70;99.90
59469;DHT22;45277;52.768;18.262;2023-07-31T05:57:03;17.80;99.90
59469;DHT22;45277;52.768;18.262;2023-07-31T05:58:34;17.90;99.90
59469;DHT22;45277;52.768;18.262;2023-07-31T06:00:06;18.00;99.90
59469;DHT22;45277;52.768;18.262;2023-07-31T06:01:38;18.00;99.90
59469;DHT22;45277;52.768;18.262;2023-07-31T06:03:10;18.10;99.90
59469;DHT22;45277;52.768;18.262;2023-07-31T06:04:41;18.20;99.90
59469;DHT22;45277;52.768;18.262;2023-07-31T06:06:13;18.20;99.90
59469;DHT22;45277;52.768;18.262;2023-07-31T06:07:45;18.30;99.90
59469;DHT22;45277;52.768;18.262;2023-07-31T06:09:16;18.30;99.90
59469;DHT22;45277;52.768;18.262;2023-07-31T06:10:47;18.40;99.90
59469;DHT22;45277;52.768;18.262;2023-07-31T06:12:19;18.30;99.90
59469;DHT22;45277;52.768;18.262;2023-07-31T06:13:50;18.40;99.90
59469;DHT22;45277;52.768;18.262;2023-07-31T06:15:22;18.50;99.90
59469;DHT22;45277;52.768;18.262;2023-07-31T06:16:53;18.50;99.90
59469;DHT22;45277;52.768;18.262;2023-07-31T06:18:24;18.60;99.90
59469;DHT22;45277;52.768;18.262;2023-07-31T06:19:56;18.70;99.90
59469;DHT22;45277;52.768;18.262;2023-07-31T06:21:28;18.80;99.90
59469;DHT22;45277;52.768;18.262;2023-07-31T06:23:00;19.00;99.90
59469;DHT22;45277;52.768;18.262;2023-07-31T06:24:32;19.10;99.90
59469;DHT22;45277;52.768;18.262;2023-07-31T06:26:03;19.20;99.90
59469;DHT22;45277;52.768;18.262;2023-07-31T06:27:35;19.20;99.90
59469;DHT22;45277;52.768;18.262;2023-07-31T06:29:07;19.10;99.90
59469;DHT22;45277;52.768;18.262;2023-07-31T06:30:38;19.10;99.90
59469;DHT22;45277;52.768;18.262;2023-07-31T06:32:10;19.20;99.90
59469;DHT22;45277;52.768;18.262;2023-07-31T06:33:41;19.20;99.90
59469;DHT22;45277;52.768;18.262;2023-07-31T06:35:13;19.20;99.90
59469;DHT22;45277;52.768;18.262;2023-07-31T06:36:44;19.40;99.90
59469;DHT22;45277;52.768;18.262;2023-07-31T06:38:16;19.40;99.90
59469;DHT22;45277;52.768;18.262;2023-07-31T06:39:47;19.50;99.90
59469;DHT22;45277;52.768;18.262;2023-07-31T06:41:19;19.60;99.90
59469;DHT22;45277;52.768;18.262;2023-07-31T06:42:50;19.70;99.90
59469;DHT22;45277;52.768;18.262;2023-07-31T06:44:22;19.80;99.90
59469;DHT22;45277;52.768;18.262;2023-07-31T06:45:53;19.90;99.90
59469;DHT22;45277;52.768;18.262;2023-07-31T06:47:25;19.90;99.90
59469;DHT22;45277;52.768;18.262;2023-07-31T06:48:57;19.90;99.90
59469;DHT22;45277;52.768;18.262;2023-07-31T06:50:32;20.00;99.90
59469;DHT22;45277;52.768;18.262;2023-07-31T06:52:04;19.90;99.90
59469;DHT22;45277;52.768;18.262;2023-07-31T06:53:35;19.90;99.90
59469;DHT22;45277;52.768;18.262;2023-07-31T06:55:25;20.00;99.90
59469;DHT22;45277;52.768;18.262;2023-07-31T06:56:57;19.90;95.60
59469;DHT22;45277;52.768;18.262;2023-07-31T06:58:29;19.90;99.90
59469;DHT22;45277;52.768;18.262;2023-07-31T07:00:00;20.00;99.90
59469;DHT22;45277;52.768;18.262;2023-07-31T07:01:31;20.10;99.90
59469;DHT22;45277;52.768;18.262;2023-07-31T07:03:03;20.20;99.90
59469;DHT22;45277;52.768;18.262;2023-07-31T07:04:34;20.40;89.40
59469;DHT22;45277;52.768;18.262;2023-07-31T07:06:06;20.60;60.00
59469;DHT22;45277;52.768;18.262;2023-07-31T07:07:38;20.80;91.00
59469;DHT22;45277;52.768;18.262;2023-07-31T07:09:09;21.00;76.40
59469;DHT22;45277;52.768;18.262;2023-07-31T07:10:41;21.10;84.90
59469;DHT22;45277;52.768;18.262;2023-07-31T07:12:13;21.20;83.90
59469;DHT22;45277;52.768;18.262;2023-07-31T07:13:44;21.20;58.30
59469;DHT22;45277;52.768;18.262;2023-07-31T07:15:16;21.20;53.20
59469;DHT22;45277;52.768;18.262;2023-07-31T07:16:51;21.20;57.90
59469;DHT22;45277;52.768;18.262;2023-07-31T07:18:22;21.20;38.40
59469;DHT22;45277;52.768;18.262;2023-07-31T07:19:54;21.10;38.70
59469;DHT22;45277;52.768;18.262;2023-07-31T07:21:27;21.10;33.10
59469;DHT22;45277;52.768;18.262;2023-07-31T07:22:58;21.20;29.80
59469;DHT22;45277;52.768;18.262;2023-07-31T07:24:30;21.20;36.40
59469;DHT22;45277;52.768;18.262;2023-07-31T07:26:01;21.20;43.90
59469;DHT22;45277;52.768;18.262;2023-07-31T07:27:33;21.20;58.30
59469;DHT22;45277;52.768;18.262;2023-07-31T07:29:05;21.20;43.60
59469;DHT22;45277;52.768;18.262;2023-07-31T07:30:39;21.10;48.20
59469;DHT22;45277;52.768;18.262;2023-07-31T07:32:12;21.10;51.00
59469;DHT22;45277;52.768;18.262;2023-07-31T07:33:44;21.20;40.60
59469;DHT22;45277;52.768;18.262;2023-07-31T07:35:15;21.10;39.00
59469;DHT22;45277;52.768;18.262;2023-07-31T07:36:47;21.20;47.30
59469;DHT22;45277;52.768;18.262;2023-07-31T07:38:18;21.20;37.30
59469;DHT22;45277;52.768;18.262;2023-07-31T07:39:50;21.30;27.30
59469;DHT22;45277;52.768;18.262;2023-07-31T07:41:22;21.20;14.60
59469;DHT22;45277;52.768;18.262;2023-07-31T07:42:53;21.10;25.10
59469;DHT22;45277;52.768;18.262;2023-07-31T07:44:25;21.10;24.90
59469;DHT22;45277;52.768;18.262;2023-07-31T07:45:57;21.10;35.50
59469;DHT22;45277;52.768;18.262;2023-07-31T07:47:29;21.10;39.10
59469;DHT22;45277;52.768;18.262;2023-07-31T07:49:01;21.10;48.00
59469;DHT22;45277;52.768;18.262;2023-07-31T07:50:32;21.10;41.20
59469;DHT22;45277;52.768;18.262;2023-07-31T07:52:05;21.20;48.50
59469;DHT22;45277;52.768;18.262;2023-07-31T07:53:36;21.20;34.10
59469;DHT22;45277;52.768;18.262;2023-07-31T07:55:08;21.20;33.10
59469;DHT22;45277;52.768;18.262;2023-07-31T07:56:40;21.20;38.90
59469;DHT22;45277;52.768;18.262;2023-07-31T07:58:11;21.30;42.50
59469;DHT22;45277;52.768;18.262;2023-07-31T07:59:42;21.30;56.00
59469;DHT22;45277;52.768;18.262;2023-07-31T08:01:14;21.40;43.40
59469;DHT22;45277;52.768;18.262;2023-07-31T08:02:45;21.50;39.40
59469;DHT22;45277;52.768;18.262;2023-07-31T08:04:17;21.60;44.00
59469;DHT22;45277;52.768;18.262;2023-07-31T08:05:49;21.70;34.60
59469;DHT22;45277;52.768;18.262;2023-07-31T08:07:21;21.70;33.40
59469;DHT22;45277;52.768;18.262;2023-07-31T08:08:52;21.70;31.80
59469;DHT22;45277;52.768;18.262;2023-07-31T08:10:24;21.90;33.60
59469;DHT22;45277;52.768;18.262;2023-07-31T08:11:56;21.80;20.60
59469;DHT22;45277;52.768;18.262;2023-07-31T08:13:33;21.90;29.10
59469;DHT22;45277;52.768;18.262;2023-07-31T08:15:06;22.00;33.70
59469;DHT22;45277;52.768;18.262;2023-07-31T08:16:38;22.10;24.10
59469;DHT22;45277;52.768;18.262;2023-07-31T08:18:09;22.20;22.60
59469;DHT22;45277;52.768;18.262;2023-07-31T08:19:43;22.20;22.70
59469;DHT22;45277;52.768;18.262;2023-07-31T08:21:15;22.10;15.70
59469;DHT22;45277;52.768;18.262;2023-07-31T08:22:46;22.10;29.30
59469;DHT22;45277;52.768;18.262;2023-07-31T08:24:18;22.10;28.10
59469;DHT22;45277;52.768;18.262;2023-07-31T08:25:49;22.10;24.40
59469;DHT22;45277;52.768;18.262;2023-07-31T08:27:21;22.10;28.00
59469;DHT22;45277;52.768;18.262;2023-07-31T08:28:53;22.20;33.30
59469;DHT22;45277;52.768;18.262;2023-07-31T08:30:25;22.30;22.60
59469;DHT22;45277;52.768;18.262;2023-07-31T08:31:56;22.30;20.90
59469;DHT22;45277;52.768;18.262;2023-07-31T08:33:28;22.30;27.60
59469;DHT22;45277;52.768;18.262;2023-07-31T08:35:00;22.20;30.80
59469;DHT22;45277;52.768;18.262;2023-07-31T08:36:31;22.20;28.50
59469;DHT22;45277;52.768;18.262;2023-07-31T08:38:03;22.10;18.30
59469;DHT22;45277;52.768;18.262;2023-07-31T08:39:34;22.20;30.30
59469;DHT22;45277;52.768;18.262;2023-07-31T08:41:06;22.20;18.70
59469;DHT22;45277;52.768;18.262;2023-07-31T08:42:47;22.30;20.00
59469;DHT22;45277;52.768;18.262;2023-07-31T08:44:21;22.50;26.80
59469;DHT22;45277;52.768;18.262;2023-07-31T08:45:54;22.60;9.80
59469;DHT22;45277;52.768;18.262;2023-07-31T08:47:27;22.70;14.20
59469;DHT22;45277;52.768;18.262;2023-07-31T08:48:59;22.80;8.00
59469;DHT22;45277;52.768;18.262;2023-07-31T08:50:31;22.90;8.40
59469;DHT22;45277;52.768;18.262;2023-07-31T08:52:03;23.10;3.20
59469;DHT22;45277;52.768;18.262;2023-07-31T08:53:35;23.10;5.80
59469;DHT22;45277;52.768;18.262;2023-07-31T08:55:07;23.20;7.10
59469;DHT22;45277;52.768;18.262;2023-07-31T08:56:39;23.10;8.80
59469;DHT22;45277;52.768;18.262;2023-07-31T08:58:12;23.00;8.80
59469;DHT22;45277;52.768;18.262;2023-07-31T08:59:45;22.90;12.70
59469;DHT22;45277;52.768;18.262;2023-07-31T09:01:18;22.80;9.60
59469;DHT22;45277;52.768;18.262;2023-07-31T09:02:57;22.60;13.40
59469;DHT22;45277;52.768;18.262;2023-07-31T09:04:30;22.40;10.10
59469;DHT22;45277;52.768;18.262;2023-07-31T09:06:02;22.40;15.90
59469;DHT22;45277;52.768;18.262;2023-07-31T09:07:35;22.50;12.10
59469;DHT22;45277;52.768;18.262;2023-07-31T09:09:07;22.40;14.30
59469;DHT22;45277;52.768;18.262;2023-07-31T09:10:42;22.50;9.40
59469;DHT22;45277;52.768;18.262;2023-07-31T09:12:13;22.50;8.20
59469;DHT22;45277;52.768;18.262;2023-07-31T09:13:46;22.40;7.80
59469;DHT22;45277;52.768;18.262;2023-07-31T09:15:18;22.50;11.10
59469;DHT22;45277;52.768;18.262;2023-07-31T09:16:57;22.60;16.20
59469;DHT22;45277;52.768;18.262;2023-07-31T09:18:29;22.70;13.10
59469;DHT22;45277;52.768;18.262;2023-07-31T09:20:18;22.50;11.00
59469;DHT22;45277;52.768;18.262;2023-07-31T09:21:50;22.40;14.80
59469;DHT22;45277;52.768;18.262;2023-07-31T09:23:21;22.40;14.00
59469;DHT22;45277;52.768;18.262;2023-07-31T09:24:53;22.20;20.10
59469;DHT22;45277;52.768;18.262;2023-07-31T09:26:32;22.10;33.40
59469;DHT22;45277;52.768;18.262;2023-07-31T09:28:06;22.20;31.00
59469;DHT22;45277;52.768;18.262;2023-07-31T09:29:37;22.10;26.30
59469;DHT22;45277;52.768;18.262;2023-07-31T09:31:09;22.10;22.00
59469;DHT22;45277;52.768;18.262;2023-07-31T09:32:40;22.30;23.40
59469;DHT22;45277;52.768;18.262;2023-07-31T09:34:12;22.50;23.90
59469;DHT22;45277;52.768;18.262;2023-07-31T09:35:45;22.70;18.50
59469;DHT22;45277;52.768;18.262;2023-07-31T09:37:16;23.00;13.60
59469;DHT22;45277;52.768;18.262;2023-07-31T09:38:49;23.00;10.90